sensor_id;sensor_type;location;lat;lon;timestamp;temperature;humidity
25024;DHT22;13033;50.936;5.334;2022-11-20T00:01:11;5.50;99.90
25024;DHT22;13033;50.936;5.334;2022-11-20T00:03:37;5.50;99.90
25024;DHT22;13033;50.936;5.334;2022-11-20T00:06:06;5.40;99.90
25024;DHT22;13033;50.936;5.334;2022-11-20T00:08:32;5.00;99.90
25024;DHT22;13033;50.936;5.334;2022-11-20T00:11:09;4.80;99.90
25024;DHT22;13033;50.936;5.334;2022-11-20T00:13:35;4.80;99.90
25024;DHT22;13033;50.936;5.334;2022-11-20T00:16:02;4.80;99.90
25024;DHT22;13033;50.936;5.334;2022-11-20T00:18:28;5.00;99.90
25024;DHT22;13033;50.936;5.334;2022-11-20T00:21:03;5.20;99.90
25024;DHT22;13033;50.936;5.334;2022-11-20T00:23:29;5.30;99.90
25024;DHT22;13033;50.936;5.334;2022-11-20T00:25:55;5.60;99.90
25024;DHT22;13033;50.936;5.334;2022-11-20T00:28:21;5.90;99.90
25024;DHT22;13033;50.936;5.334;2022-11-20T00:30:46;5.90;99.90
25024;DHT22;13033;50.936;5.334;2022-11-20T00:33:12;5.50;99.90
25024;DHT22;13033;50.936;5.334;2022-11-20T00:35:37;5.50;99.90
25024;DHT22;13033;50.936;5.334;2022-11-20T00:38:03;5.60;99.90
25024;DHT22;13033;50.936;5.334;2022-11-20T00:40:29;5.50;99.90
25024;DHT22;13033;50.936;5.334;2022-11-20T00:42:54;5.60;99.90
25024;DHT22;13033;50.936;5.334;2022-11-20T00:45:20;5.70;99.90
25024;DHT22;13033;50.936;5.334;2022-11-20T00:47:46;5.40;99.90
25024;DHT22;13033;50.936;5.334;2022-11-20T00:50:11;5.00;99.90
25024;DHT22;13033;50.936;5.334;2022-11-20T00:52:37;4.70;99.90
25024;DHT22;13033;50.936;5.334;2022-11-20T00:55:03;4.90;99.90
25024;DHT22;13033;50.936;5.334;2022-11-20T00:57:28;4.90;99.90
25024;DHT22;13033;50.936;5.334;2022-11-20T00:59:54;4.90;99.90
25024;DHT22;13033;50.936;5.334;2022-11-20T01:02:20;5.00;99.90
25024;DHT22;13033;50.936;5.334;2022-11-20T01:04:45;5.00;99.90
25024;DHT22;13033;50.936;5.334;2022-11-20T01:07:11;5.30;99.90
25024;DHT22;13033;50.936;5.334;2022-11-20T01:09:36;5.50;99.90
25024;DHT22;13033;50.936;5.334;2022-11-20T01:12:03;5.70;99.90
25024;DHT22;13033;50.936;5.334;2022-11-20T01:14:28;5.70;99.90
25024;DHT22;13033;50.936;5.334;2022-11-20T01:16:54;5.80;99.90
25024;DHT22;13033;50.936;5.334;2022-11-20T01:19:22;5.70;99.90
25024;DHT22;13033;50.936;5.334;2022-11-20T01:21:50;5.90;99.90
25024;DHT22;13033;50.936;5.334;2022-11-20T01:24:18;6.00;99.90
25024;DHT22;13033;50.936;5.334;2022-11-20T01:26:44;5.90;99.90
25024;DHT22;13033;50.936;5.334;2022-11-20T01:29:19;6.00;99.90
25024;DHT22;13033;50.936;5.334;2022-11-20T01:31:46;5.90;99.90
25024;DHT22;13033;50.936;5.334;2022-11-20T01:34:14;5.90;99.90
25024;DHT22;13033;50.936;5.334;2022-11-20T01:36:40;5.80;99.90
25024;DHT22;13033;50.936;5.334;2022-11-20T01:39:18;5.60;99.90
25024;DHT22;13033;50.936;5.334;2022-11-20T01:41:45;5.40;99.90
25024;DHT22;13033;50.936;5.334;2022-11-20T01:44:57;5.30;99.90
25024;DHT22;13033;50.936;5.334;2022-11-20T01:47:36;5.20;99.90
25024;DHT22;13033;50.936;5.334;2022-11-20T01:50:21;5.30;99.90
25024;DHT22;13033;50.936;5.334;2022-11-20T01:52:58;5.20;99.90
25024;DHT22;13033;50.936;5.334;2022-11-20T01:55:34;5.20;99.90
25024;DHT22;13033;50.936;5.334;2022-11-20T01:58:01;5.20;99.90
25024;DHT22;13033;50.936;5.334;2022-11-20T02:00:28;5.30;99.90
25024;DHT22;13033;50.936;5.334;2022-11-20T02:03:00;5.20;99.90
25024;DHT22;13033;50.936;5.334;2022-11-20T02:05:39;5.10;99.90
25024;DHT22;13033;50.936;5.334;2022-11-20T02:08:06;5.00;99.90
25024;DHT22;13033;50.936;5.334;2022-11-20T02:10:34;5.30;99.90
25024;DHT22;13033;50.936;5.334;2022-11-20T02:13:00;5.30;99.90
25024;DHT22;13033;50.936;5.334;2022-11-20T02:15:44;5.40;99.90
25024;DHT22;13033;50.936;5.334;2022-11-20T02:18:12;5.60;99.90
25024;DHT22;13033;50.936;5.334;2022-11-20T02:20:41;5.50;99.90
25024;DHT22;13033;50.936;5.334;2022-11-20T02:23:37;5.60;99.90
25024;DHT22;13033;50.936;5.334;2022-11-20T02:26:00;5.80;99.90
25024;DHT22;13033;50.936;5.334;2022-11-20T02:28:27;5.70;99.90
25024;DHT22;13033;50.936;5.334;2022-11-20T02:30:53;5.70;99.90
25024;DHT22;13033;50.936;5.334;2022-11-20T02:33:18;5.50;99.90
25024;DHT22;13033;50.936;5.334;2022-11-20T02:35:45;5.50;99.90
25024;DHT22;13033;50.936;5.334;2022-11-20T02:38:12;5.50;99.90
25024;DHT22;13033;50.936;5.334;2022-11-20T02:40:38;5.50;99.90
25024;DHT22;13033;50.936;5.334;2022-11-20T02:43:03;5.40;99.90
25024;DHT22;13033;50.936;5.334;2022-11-20T02:45:29;5.30;99.90
25024;DHT22;13033;50.936;5.334;2022-11-20T02:47:55;5.40;99.90
25024;DHT22;13033;50.936;5.334;2022-11-20T02:50:20;5.30;99.90
25024;DHT22;13033;50.936;5.334;2022-11-20T02:52:46;5.20;99.90
25024;DHT22;13033;50.936;5.334;2022-11-20T02:55:12;5.30;99.90
25024;DHT22;13033;50.936;5.334;2022-11-20T02:57:38;5.20;99.90
25024;DHT22;13033;50.936;5.334;2022-11-20T03:00:04;5.20;99.90
25024;DHT22;13033;50.936;5.334;2022-11-20T03:02:32;5.20;99.90
25024;DHT22;13033;50.936;5.334;2022-11-20T03:04:58;5.30;99.90
25024;DHT22;13033;50.936;5.334;2022-11-20T03:07:24;5.30;99.90
25024;DHT22;13033;50.936;5.334;2022-11-20T03:09:50;5.30;99.90
25024;DHT22;13033;50.936;5.334;2022-11-20T03:12:15;5.40;99.90
25024;DHT22;13033;50.936;5.334;2022-11-20T03:14:41;5.40;99.90
25024;DHT22;13033;50.936;5.334;2022-11-20T03:17:07;5.20;99.90
25024;DHT22;13033;50.936;5.334;2022-11-20T03:19:32;5.00;99.90
25024;DHT22;13033;50.936;5.334;2022-11-20T03:21:59;5.00;99.90
25024;DHT22;13033;50.936;5.334;2022-11-20T03:24:25;5.00;99.90
25024;DHT22;13033;50.936;5.334;2022-11-20T03:26:51;5.10;99.90
25024;DHT22;13033;50.936;5.334;2022-11-20T03:29:17;5.30;99.90
25024;DHT22;13033;50.936;5.334;2022-11-20T03:31:42;5.50;99.90
25024;DHT22;13033;50.936;5.334;2022-11-20T03:34:09;5.60;99.90
25024;DHT22;13033;50.936;5.334;2022-11-20T03:36:38;5.70;99.90
25024;DHT22;13033;50.936;5.334;2022-11-20T03:39:04;5.40;99.90
25024;DHT22;13033;50.936;5.334;2022-11-20T03:41:31;5.50;99.90
25024;DHT22;13033;50.936;5.334;2022-11-20T03:44:02;5.50;99.90
25024;DHT22;13033;50.936;5.334;2022-11-20T03:46:29;5.60;99.90
25024;DHT22;13033;50.936;5.334;2022-11-20T03:48:55;5.60;99.90
25024;DHT22;13033;50.936;5.334;2022-11-20T03:51:26;5.40;99.90
25024;DHT22;13033;50.936;5.334;2022-11-20T03:53:54;5.40;99.90
25024;DHT22;13033;50.936;5.334;2022-11-20T03:56:23;5.40;99.90
25024;DHT22;13033;50.936;5.334;2022-11-20T03:58:49;5.60;99.90
25024;DHT22;13033;50.936;5.334;2022-11-20T04:01:18;5.40;99.90
25024;DHT22;13033;50.936;5.334;2022-11-20T04:03:45;5.50;99.90
25024;DHT22;13033;50.936;5.334;2022-11-20T04:06:20;5.50;99.90
25024;DHT22;13033;50.936;5.334;2022-11-20T04:08:46;5.70;99.90
25024;DHT22;13033;50.936;5.334;2022-11-20T04:11:20;5.50;99.90
25024;DHT22;13033;50.936;5.334;2022-11-20T04:13:48;5.20;99.90
25024;DHT22;13033;50.936;5.334;2022-11-20T04:16:14;5.20;99.90
25024;DHT22;13033;50.936;5.334;2022-11-20T04:18:40;5.40;99.90
25024;DHT22;13033;50.936;5.334;2022-11-20T04:21:06;5.40;99.90
25024;DHT22;13033;50.936;5.334;2022-11-20T04:23:32;5.30;99.90
25024;DHT22;13033;50.936;5.334;2022-11-20T04:26:09;5.50;99.90
25024;DHT22;13033;50.936;5.334;2022-11-20T04:28:36;5.60;99.90
25024;DHT22;13033;50.936;5.334;2022-11-20T04:31:12;5.60;99.90
25024;DHT22;13033;50.936;5.334;2022-11-20T04:33:38;5.40;99.90
25024;DHT22;13033;50.936;5.334;2022-11-20T04:36:16;5.40;99.90
25024;DHT22;13033;50.936;5.334;2022-11-20T04:38:42;5.40;99.90
25024;DHT22;13033;50.936;5.334;2022-11-20T04:41:12;5.30;99.90
25024;DHT22;13033;50.936;5.334;2022-11-20T04:43:39;5.40;99.90
25024;DHT22;13033;50.936;5.334;2022-11-20T04:46:05;5.30;99.90
25024;DHT22;13033;50.936;5.334;2022-11-20T04:48:30;5.30;99.90
25024;DHT22;13033;50.936;5.334;2022-11-20T04:50:57;5.40;99.90
25024;DHT22;13033;50.936;5.334;2022-11-20T04:53:23;5.40;99.90
25024;DHT22;13033;50.936;5.334;2022-11-20T04:55:49;5.40;99.90
25024;DHT22;13033;50.936;5.334;2022-11-20T04:58:15;5.20;99.90
25024;DHT22;13033;50.936;5.334;2022-11-20T05:00:41;5.30;99.90
25024;DHT22;13033;50.936;5.334;2022-11-20T05:03:06;5.20;99.90
25024;DHT22;13033;50.936;5.334;2022-11-20T05:05:34;5.10;99.90
25024;DHT22;13033;50.936;5.334;2022-11-20T05:08:00;5.20;99.90
25024;DHT22;13033;50.936;5.334;2022-11-20T05:10:25;5.40;99.90
25024;DHT22;13033;50.936;5.334;2022-11-20T05:12:51;5.40;99.90
25024;DHT22;13033;50.936;5.334;2022-11-20T05:15:17;5.20;99.90
25024;DHT22;13033;50.936;5.334;2022-11-20T05:17:50;5.10;99.90
25024;DHT22;13033;50.936;5.334;2022-11-20T05:20:16;5.20;99.90
25024;DHT22;13033;50.936;5.334;2022-11-20T05:22:41;5.20;99.90
25024;DHT22;13033;50.936;5.334;2022-11-20T05:25:08;5.40;99.90
25024;DHT22;13033;50.936;5.334;2022-11-20T05:27:33;5.80;99.90
25024;DHT22;13033;50.936;5.334;2022-11-20T05:29:59;5.70;99.90
25024;DHT22;13033;50.936;5.334;2022-11-20T05:32:24;5.80;99.90
25024;DHT22;13033;50.936;5.334;2022-11-20T05:34:53;5.40;99.90
25024;DHT22;13033;50.936;5.334;2022-11-20T05:37:18;5.40;99.90
25024;DHT22;13033;50.936;5.334;2022-11-20T05:39:44;5.50;99.90
25024;DHT22;13033;50.936;5.334;2022-11-20T05:42:09;5.30;99.90
25024;DHT22;13033;50.936;5.334;2022-11-20T05:44:54;5.40;99.90
25024;DHT22;13033;50.936;5.334;2022-11-20T05:47:19;5.50;99.90
25024;DHT22;13033;50.936;5.334;2022-11-20T05:49:45;5.50;99.90
25024;DHT22;13033;50.936;5.334;2022-11-20T05:52:10;5.30;99.90
25024;DHT22;13033;50.936;5.334;2022-11-20T05:54:36;5.10;99.90
25024;DHT22;13033;50.936;5.334;2022-11-20T05:57:02;5.30;99.90
25024;DHT22;13033;50.936;5.334;2022-11-20T05:59:27;5.30;99.90
25024;DHT22;13033;50.936;5.334;2022-11-20T06:01:53;5.30;99.90
25024;DHT22;13033;50.936;5.334;2022-11-20T06:04:18;5.30;99.90
25024;DHT22;13033;50.936;5.334;2022-11-20T06:06:44;5.40;99.90
25024;DHT22;13033;50.936;5.334;2022-11-20T06:09:10;5.30;99.90
25024;DHT22;13033;50.936;5.334;2022-11-20T06:11:35;5.50;99.90
25024;DHT22;13033;50.936;5.334;2022-11-20T06:14:01;5.50;99.90
25024;DHT22;13033;50.936;5.334;2022-11-20T06:16:26;5.70;99.90
25024;DHT22;13033;50.936;5.334;2022-11-20T06:18:52;5.60;99.90
25024;DHT22;13033;50.936;5.334;2022-11-20T06:21:20;5.60;99.90
25024;DHT22;13033;50.936;5.334;2022-11-20T06:23:46;5.50;99.90
25024;DHT22;13033;50.936;5.334;2022-11-20T06:26:17;5.50;99.90
25024;DHT22;13033;50.936;5.334;2022-11-20T06:28:43;5.60;99.90
25024;DHT22;13033;50.936;5.334;2022-11-20T06:31:12;5.70;99.90
25024;DHT22;13033;50.936;5.334;2022-11-20T06:33:39;5.70;99.90
25024;DHT22;13033;50.936;5.334;2022-11-20T06:36:04;5.40;99.90
25024;DHT22;13033;50.936;5.334;2022-11-20T06:38:30;5.40;99.90
25024;DHT22;13033;50.936;5.334;2022-11-20T06:40:56;5.40;99.90
25024;DHT22;13033;50.936;5.334;2022-11-20T06:43:22;5.70;99.90
25024;DHT22;13033;50.936;5.334;2022-11-20T06:45:53;5.80;99.90
25024;DHT22;13033;50.936;5.334;2022-11-20T06:48:19;5.80;99.90
25024;DHT22;13033;50.936;5.334;2022-11-20T06:50:45;5.50;99.90
25024;DHT22;13033;50.936;5.334;2022-11-20T06:53:10;5.30;99.90
25024;DHT22;13033;50.936;5.334;2022-11-20T06:55:36;5.40;99.90
25024;DHT22;13033;50.936;5.334;2022-11-20T06:58:02;5.30;99.90
25024;DHT22;13033;50.936;5.334;2022-11-20T07:00:27;5.30;99.90
25024;DHT22;13033;50.936;5.334;2022-11-20T07:02:53;5.70;99.90
25024;DHT22;13033;50.936;5.334;2022-11-20T07:05:18;5.40;99.90
25024;DHT22;13033;50.936;5.334;2022-11-20T07:07:44;5.20;99.90
25024;DHT22;13033;50.936;5.334;2022-11-20T07:10:10;5.10;99.90
25024;DHT22;13033;50.936;5.334;2022-11-20T07:12:35;5.20;99.90
25024;DHT22;13033;50.936;5.334;2022-11-20T07:15:01;5.30;99.90
25024;DHT22;13033;50.936;5.334;2022-11-20T07:17:27;5.50;99.90
25024;DHT22;13033;50.936;5.334;2022-11-20T07:19:52;5.40;99.90
25024;DHT22;13033;50.936;5.334;2022-11-20T07:22:18;5.50;99.90
25024;DHT22;13033;50.936;5.334;2022-11-20T07:24:47;5.80;99.90
25024;DHT22;13033;50.936;5.334;2022-11-20T07:27:12;5.90;99.90
25024;DHT22;13033;50.936;5.334;2022-11-20T07:29:38;5.80;99.90
25024;DHT22;13033;50.936;5.334;2022-11-20T07:32:04;5.80;99.90
25024;DHT22;13033;50.936;5.334;2022-11-20T07:34:29;5.70;99.90
25024;DHT22;13033;50.936;5.334;2022-11-20T07:36:55;5.60;99.90
25024;DHT22;13033;50.936;5.334;2022-11-20T07:39:21;5.80;99.90
25024;DHT22;13033;50.936;5.334;2022-11-20T07:41:46;5.60;99.90
25024;DHT22;13033;50.936;5.334;2022-11-20T07:44:12;5.50;99.90
25024;DHT22;13033;50.936;5.334;2022-11-20T07:46:37;5.50;99.90
25024;DHT22;13033;50.936;5.334;2022-11-20T07:49:03;5.10;99.90
25024;DHT22;13033;50.936;5.334;2022-11-20T07:51:29;5.20;99.90
25024;DHT22;13033;50.936;5.334;2022-11-20T07:53:54;5.30;99.90
25024;DHT22;13033;50.936;5.334;2022-11-20T07:56:20;5.20;99.90
25024;DHT22;13033;50.936;5.334;2022-11-20T07:58:46;5.20;99.90
25024;DHT22;13033;50.936;5.334;2022-11-20T08:01:11;5.30;99.90
25024;DHT22;13033;50.936;5.334;2022-11-20T08:03:37;5.40;99.90
25024;DHT22;13033;50.936;5.334;2022-11-20T08:06:03;5.70;99.90
25024;DHT22;13033;50.936;5.334;2022-11-20T08:08:29;5.70;99.90
25024;DHT22;13033;50.936;5.334;2022-11-20T08:10:56;5.70;99.90
25024;DHT22;13033;50.936;5.334;2022-11-20T08:13:42;5.90;99.90
25024;DHT22;13033;50.936;5.334;2022-11-20T08:16:27;5.80;99.90
25024;DHT22;13033;50.936;5.334;2022-11-20T08:18:53;6.00;99.90
25024;DHT22;13033;50.936;5.334;2022-11-20T08:21:19;6.20;99.90
25024;DHT22;13033;50.936;5.334;2022-11-20T08:23:44;6.10;99.90
25024;DHT22;13033;50.936;5.334;2022-11-20T08:26:10;6.30;99.90
25024;DHT22;13033;50.936;5.334;2022-11-20T08:28:35;5.90;99.90
25024;DHT22;13033;50.936;5.334;2022-11-20T08:31:02;5.90;99.90
25024;DHT22;13033;50.936;5.334;2022-11-20T08:33:28;5.60;99.90
25024;DHT22;13033;50.936;5.334;2022-11-20T08:36:04;5.60;99.90
25024;DHT22;13033;50.936;5.334;2022-11-20T08:38:31;5.80;99.90
25024;DHT22;13033;50.936;5.334;2022-11-20T08:41:01;5.90;99.90
25024;DHT22;13033;50.936;5.334;2022-11-20T08:43:45;6.10;99.90
25024;DHT22;13033;50.936;5.334;2022-11-20T08:46:12;6.20;99.90
25024;DHT22;13033;50.936;5.334;2022-11-20T08:48:37;6.20;99.90
25024;DHT22;13033;50.936;5.334;2022-11-20T08:51:03;6.30;99.90
25024;DHT22;13033;50.936;5.334;2022-11-20T08:53:29;6.30;99.90
25024;DHT22;13033;50.936;5.334;2022-11-20T08:55:56;6.20;99.90
25024;DHT22;13033;50.936;5.334;2022-11-20T08:58:22;6.20;99.90
25024;DHT22;13033;50.936;5.334;2022-11-20T09:00:48;5.90;99.90
25024;DHT22;13033;50.936;5.334;2022-11-20T09:03:13;5.90;99.90
25024;DHT22;13033;50.936;5.334;2022-11-20T09:05:39;6.10;99.90
25024;DHT22;13033;50.936;5.334;2022-11-20T09:08:05;6.40;99.90
25024;DHT22;13033;50.936;5.334;2022-11-20T09:10:31;6.50;99.90
25024;DHT22;13033;50.936;5.334;2022-11-20T09:12:57;6.80;99.90
25024;DHT22;13033;50.936;5.334;2022-11-20T09:15:24;6.80;99.90
25024;DHT22;13033;50.936;5.334;2022-11-20T09:17:53;6.60;99.90
25024;DHT22;13033;50.936;5.334;2022-11-20T09:20:19;6.70;99.90
25024;DHT22;13033;50.936;5.334;2022-11-20T09:22:45;6.70;99.90
25024;DHT22;13033;50.936;5.334;2022-11-20T09:25:10;6.70;99.90
25024;DHT22;13033;50.936;5.334;2022-11-20T09:27:36;6.70;99.90
25024;DHT22;13033;50.936;5.334;2022-11-20T09:30:03;6.60;99.90
25024;DHT22;13033;50.936;5.334;2022-11-20T09:32:28;6.60;99.90
25024;DHT22;13033;50.936;5.334;2022-11-20T09:34:54;6.70;99.90
25024;DHT22;13033;50.936;5.334;2022-11-20T09:37:20;6.80;99.90
25024;DHT22;13033;50.936;5.334;2022-11-20T09:39:45;7.10;99.90
25024;DHT22;13033;50.936;5.334;2022-11-20T09:42:30;7.10;99.90
25024;DHT22;13033;50.936;5.334;2022-11-20T09:50:31;7.20;99.90
25024;DHT22;13033;50.936;5.334;2022-11-20T09:55:50;7.60;99.90
25024;DHT22;13033;50.936;5.334;2022-11-20T09:58:30;7.20;99.90
25024;DHT22;13033;50.936;5.334;2022-11-20T10:01:12;7.10;99.90
25024;DHT22;13033;50.936;5.334;2022-11-20T10:04:42;7.10;99.90
25024;DHT22;13033;50.936;5.334;2022-11-20T10:09:55;7.20;99.90
25024;DHT22;13033;50.936;5.334;2022-11-20T10:24:23;7.20;99.90
25024;DHT22;13033;50.936;5.334;2022-11-20T10:27:14;7.10;99.90
25024;DHT22;13033;50.936;5.334;2022-11-20T10:32:32;7.40;99.90
25024;DHT22;13033;50.936;5.334;2022-11-20T10:35:07;7.50;99.90
25024;DHT22;13033;50.936;5.334;2022-11-20T10:37:43;7.40;99.90
25024;DHT22;13033;50.936;5.334;2022-11-20T10:40:23;7.10;99.90
25024;DHT22;13033;50.936;5.334;2022-11-20T10:42:54;7.40;99.90
25024;DHT22;13033;50.936;5.334;2022-11-20T10:47:51;7.50;99.90
25024;DHT22;13033;50.936;5.334;2022-11-20T10:50:20;7.90;99.90
25024;DHT22;13033;50.936;5.334;2022-11-20T10:53:17;7.70;99.90
25024;DHT22;13033;50.936;5.334;2022-11-20T10:55:53;7.60;99.90
25024;DHT22;13033;50.936;5.334;2022-11-20T11:01:14;7.50;99.90
25024;DHT22;13033;50.936;5.334;2022-11-20T11:03:41;7.80;99.90
25024;DHT22;13033;50.936;5.334;2022-11-20T11:08:46;8.00;99.90
25024;DHT22;13033;50.936;5.334;2022-11-20T11:13:47;7.90;99.90
25024;DHT22;13033;50.936;5.334;2022-11-20T11:16:25;8.20;99.90
25024;DHT22;13033;50.936;5.334;2022-11-20T11:18:51;8.40;99.90
25024;DHT22;13033;50.936;5.334;2022-11-20T11:21:24;8.50;99.90
25024;DHT22;13033;50.936;5.334;2022-11-20T11:23:59;8.30;99.90
25024;DHT22;13033;50.936;5.334;2022-11-20T11:26:25;8.20;99.90
25024;DHT22;13033;50.936;5.334;2022-11-20T11:31:28;8.50;99.90
25024;DHT22;13033;50.936;5.334;2022-11-20T11:34:15;8.50;99.90
25024;DHT22;13033;50.936;5.334;2022-11-20T11:36:41;8.40;99.90
25024;DHT22;13033;50.936;5.334;2022-11-20T11:39:19;8.30;99.90
25024;DHT22;13033;50.936;5.334;2022-11-20T11:41:46;8.60;99.90
25024;DHT22;13033;50.936;5.334;2022-11-20T11:44:22;8.80;99.90
25024;DHT22;13033;50.936;5.334;2022-11-20T11:47:24;8.50;99.90
25024;DHT22;13033;50.936;5.334;2022-11-20T11:52:40;8.60;99.90
25024;DHT22;13033;50.936;5.334;2022-11-20T11:55:12;8.70;99.90
25024;DHT22;13033;50.936;5.334;2022-11-20T11:58:06;8.90;99.90
25024;DHT22;13033;50.936;5.334;2022-11-20T12:00:35;9.00;99.90
25024;DHT22;13033;50.936;5.334;2022-11-20T12:05:58;9.10;99.90
25024;DHT22;13033;50.936;5.334;2022-11-20T12:11:18;9.50;99.90
25024;DHT22;13033;50.936;5.334;2022-11-20T12:13:58;9.60;99.90
25024;DHT22;13033;50.936;5.334;2022-11-20T12:16:32;9.90;99.90
25024;DHT22;13033;50.936;5.334;2022-11-20T12:18:58;10.20;99.90
25024;DHT22;13033;50.936;5.334;2022-11-20T12:21:28;10.10;99.90
25024;DHT22;13033;50.936;5.334;2022-11-20T12:35:04;10.00;99.90
25024;DHT22;13033;50.936;5.334;2022-11-20T12:43:22;10.30;99.90
25024;DHT22;13033;50.936;5.334;2022-11-20T12:57:29;10.30;99.90
25024;DHT22;13033;50.936;5.334;2022-11-20T13:02:26;10.50;99.90
25024;DHT22;13033;50.936;5.334;2022-11-20T13:07:32;10.50;99.90
25024;DHT22;13033;50.936;5.334;2022-11-20T13:09:59;10.30;99.90
25024;DHT22;13033;50.936;5.334;2022-11-20T13:12:34;10.20;99.90
25024;DHT22;13033;50.936;5.334;2022-11-20T13:17:56;10.20;99.90
25024;DHT22;13033;50.936;5.334;2022-11-20T13:20:23;10.10;99.90
25024;DHT22;13033;50.936;5.334;2022-11-20T13:22:51;10.10;99.90
25024;DHT22;13033;50.936;5.334;2022-11-20T13:27:53;9.70;99.90
25024;DHT22;13033;50.936;5.334;2022-11-20T13:30:24;9.60;99.90
25024;DHT22;13033;50.936;5.334;2022-11-20T13:32:56;9.40;99.90
25024;DHT22;13033;50.936;5.334;2022-11-20T13:35:37;9.40;99.90
25024;DHT22;13033;50.936;5.334;2022-11-20T13:38:11;9.40;99.90
25024;DHT22;13033;50.936;5.334;2022-11-20T13:40:58;9.20;99.90
25024;DHT22;13033;50.936;5.334;2022-11-20T13:43:41;9.10;99.90
25024;DHT22;13033;50.936;5.334;2022-11-20T13:46:09;9.20;99.90
25024;DHT22;13033;50.936;5.334;2022-11-20T13:48:45;9.20;99.90
25024;DHT22;13033;50.936;5.334;2022-11-20T13:52:00;9.20;99.90
25024;DHT22;13033;50.936;5.334;2022-11-20T13:54:45;9.10;99.90
25024;DHT22;13033;50.936;5.334;2022-11-20T14:00:13;8.90;99.90
25024;DHT22;13033;50.936;5.334;2022-11-20T14:02:40;8.90;99.90
25024;DHT22;13033;50.936;5.334;2022-11-20T14:05:22;9.00;99.90
25024;DHT22;13033;50.936;5.334;2022-11-20T14:07:49;8.80;99.90
25024;DHT22;13033;50.936;5.334;2022-11-20T14:10:21;8.70;99.90
25024;DHT22;13033;50.936;5.334;2022-11-20T14:12:47;8.70;99.90
25024;DHT22;13033;50.936;5.334;2022-11-20T14:15:34;8.60;99.90
25024;DHT22;13033;50.936;5.334;2022-11-20T14:18:10;8.60;99.90
25024;DHT22;13033;50.936;5.334;2022-11-20T14:20:37;8.70;99.90
25024;DHT22;13033;50.936;5.334;2022-11-20T14:23:04;8.60;99.90
25024;DHT22;13033;50.936;5.334;2022-11-20T14:25:30;8.50;99.90
25024;DHT22;13033;50.936;5.334;2022-11-20T14:27:58;8.50;99.90
25024;DHT22;13033;50.936;5.334;2022-11-20T14:30:46;8.50;99.90
25024;DHT22;13033;50.936;5.334;2022-11-20T14:33:13;8.40;99.90
25024;DHT22;13033;50.936;5.334;2022-11-20T14:35:52;8.40;99.90
25024;DHT22;13033;50.936;5.334;2022-11-20T14:38:21;8.40;99.90
25024;DHT22;13033;50.936;5.334;2022-11-20T14:40:48;8.40;99.90
25024;DHT22;13033;50.936;5.334;2022-11-20T14:43:24;8.20;99.90
25024;DHT22;13033;50.936;5.334;2022-11-20T14:46:04;8.10;99.90
25024;DHT22;13033;50.936;5.334;2022-11-20T14:48:55;8.10;99.90
25024;DHT22;13033;50.936;5.334;2022-11-20T14:51:33;7.90;99.90
25024;DHT22;13033;50.936;5.334;2022-11-20T14:54:20;8.00;99.90
25024;DHT22;13033;50.936;5.334;2022-11-20T14:56:55;8.00;99.90
25024;DHT22;13033;50.936;5.334;2022-11-20T14:59:30;8.10;99.90
25024;DHT22;13033;50.936;5.334;2022-11-20T15:02:16;8.20;99.90
25024;DHT22;13033;50.936;5.334;2022-11-20T15:04:50;8.00;99.90
25024;DHT22;13033;50.936;5.334;2022-11-20T15:07:33;8.00;99.90
25024;DHT22;13033;50.936;5.334;2022-11-20T15:10:23;8.10;99.90
25024;DHT22;13033;50.936;5.334;2022-11-20T15:13:34;8.20;99.90
25024;DHT22;13033;50.936;5.334;2022-11-20T15:15:58;8.20;99.90
25024;DHT22;13033;50.936;5.334;2022-11-20T15:18:31;8.20;99.90
25024;DHT22;13033;50.936;5.334;2022-11-20T15:21:00;8.10;99.90
25024;DHT22;13033;50.936;5.334;2022-11-20T15:23:27;8.20;99.90
25024;DHT22;13033;50.936;5.334;2022-11-20T15:25:53;8.10;99.90
25024;DHT22;13033;50.936;5.334;2022-11-20T15:28:33;8.10;99.90
25024;DHT22;13033;50.936;5.334;2022-11-20T15:31:00;8.00;99.90
25024;DHT22;13033;50.936;5.334;2022-11-20T15:33:27;8.20;99.90
25024;DHT22;13033;50.936;5.334;2022-11-20T15:35:53;8.20;99.90
25024;DHT22;13033;50.936;5.334;2022-11-20T15:38:19;8.30;99.90
25024;DHT22;13033;50.936;5.334;2022-11-20T15:40:44;8.30;99.90
25024;DHT22;13033;50.936;5.334;2022-11-20T15:43:10;8.20;99.90
25024;DHT22;13033;50.936;5.334;2022-11-20T15:46:05;8.30;99.90
25024;DHT22;13033;50.936;5.334;2022-11-20T15:48:45;8.20;99.90
25024;DHT22;13033;50.936;5.334;2022-11-20T15:51:36;8.30;99.90
25024;DHT22;13033;50.936;5.334;2022-11-20T15:54:16;8.20;99.90
25024;DHT22;13033;50.936;5.334;2022-11-20T15:56:46;8.20;99.90
25024;DHT22;13033;50.936;5.334;2022-11-20T15:59:12;8.30;99.90
25024;DHT22;13033;50.936;5.334;2022-11-20T16:01:40;8.30;99.90
25024;DHT22;13033;50.936;5.334;2022-11-20T16:04:13;8.40;99.90
25024;DHT22;13033;50.936;5.334;2022-11-20T16:06:39;8.30;99.90
25024;DHT22;13033;50.936;5.334;2022-11-20T16:09:05;8.30;99.90
25024;DHT22;13033;50.936;5.334;2022-11-20T16:11:31;8.30;99.90
25024;DHT22;13033;50.936;5.334;2022-11-20T16:13:56;8.40;99.90
25024;DHT22;13033;50.936;5.334;2022-11-20T16:16:40;8.50;99.90
25024;DHT22;13033;50.936;5.334;2022-11-20T16:19:14;8.50;99.90
25024;DHT22;13033;50.936;5.334;2022-11-20T16:21:41;8.60;99.90
25024;DHT22;13033;50.936;5.334;2022-11-20T16:24:11;8.70;99.90
25024;DHT22;13033;50.936;5.334;2022-11-20T16:26:38;8.60;99.90
25024;DHT22;13033;50.936;5.334;2022-11-20T16:29:05;8.60;99.90
25024;DHT22;13033;50.936;5.334;2022-11-20T16:31:31;8.50;99.90
25024;DHT22;13033;50.936;5.334;2022-11-20T16:34:03;8.60;99.90
25024;DHT22;13033;50.936;5.334;2022-11-20T16:36:30;8.70;99.90
25024;DHT22;13033;50.936;5.334;2022-11-20T16:39:01;8.70;99.90
25024;DHT22;13033;50.936;5.334;2022-11-20T16:41:30;8.80;99.90
25024;DHT22;13033;50.936;5.334;2022-11-20T16:43:58;8.80;99.90
25024;DHT22;13033;50.936;5.334;2022-11-20T16:46:27;8.90;99.90
25024;DHT22;13033;50.936;5.334;2022-11-20T16:48:56;8.90;99.90
25024;DHT22;13033;50.936;5.334;2022-11-20T16:51:23;8.90;99.90
25024;DHT22;13033;50.936;5.334;2022-11-20T16:53:49;9.00;99.90
25024;DHT22;13033;50.936;5.334;2022-11-20T16:56:17;9.10;99.90
25024;DHT22;13033;50.936;5.334;2022-11-20T16:58:44;9.10;99.90
25024;DHT22;13033;50.936;5.334;2022-11-20T17:01:12;9.10;99.90
25024;DHT22;13033;50.936;5.334;2022-11-20T17:03:39;9.00;99.90
25024;DHT22;13033;50.936;5.334;2022-11-20T17:06:18;9.00;99.90
25024;DHT22;13033;50.936;5.334;2022-11-20T17:08:45;9.00;99.90
25024;DHT22;13033;50.936;5.334;2022-11-20T17:11:14;9.00;99.90
25024;DHT22;13033;50.936;5.334;2022-11-20T17:13:40;9.10;99.90
25024;DHT22;13033;50.936;5.334;2022-11-20T17:16:11;9.10;99.90
25024;DHT22;13033;50.936;5.334;2022-11-20T17:18:37;9.00;99.90
25024;DHT22;13033;50.936;5.334;2022-11-20T17:21:03;9.00;99.90
25024;DHT22;13033;50.936;5.334;2022-11-20T17:23:34;8.90;99.90
25024;DHT22;13033;50.936;5.334;2022-11-20T17:28:30;8.80;99.90
25024;DHT22;13033;50.936;5.334;2022-11-20T17:31:08;8.70;99.90
25024;DHT22;13033;50.936;5.334;2022-11-20T17:33:35;8.70;99.90